Time,TemperatureF,DewpointF,PressureIn,WindDirection,WindDirectionDegrees,WindSpeedMPH,WindSpeedGustMPH,Humidity,HourlyPrecipIn,Conditions,Clouds,dailyrainin,SoftwareType,DateUTC
2013-04-29 00:01:00,67.0,35.0,-100.00,NNE,27,2.0,3.0,31,-99.99,,,-99.99,,2013-04-29 07:01:00,
2013-04-29 00:11:00,66.0,36.0,-100.00,North,9,1.0,3.0,33,-99.99,,,-99.99,,2013-04-29 07:11:00,
2013-04-29 00:21:00,65.0,37.0,-100.00,North,355,2.0,2.0,36,-99.99,,,-99.99,,2013-04-29 07:21:00,
2013-04-29 00:31:00,66.0,38.0,-100.00,NNW,347,1.0,2.0,36,-99.99,,,-99.99,,2013-04-29 07:31:00,
2013-04-29 00:41:00,66.0,38.0,-100.00,NNE,19,1.0,2.0,35,-99.99,,,-99.99,,2013-04-29 07:41:00,
2013-04-29 00:52:00,65.0,34.0,-100.00,NE,49,1.0,3.0,32,-99.99,,,-99.99,,2013-04-29 07:52:00,
2013-04-29 01:02:00,64.0,34.0,-100.00,NE,52,2.0,4.0,32,-99.99,,,-99.99,,2013-04-29 08:02:00,
2013-04-29 01:11:00,64.0,32.0,-100.00,NE,42,3.0,3.0,30,-99.99,,,-99.99,,2013-04-29 08:11:00,
2013-04-29 01:21:00,65.0,30.0,-100.00,NE,45,3.0,4.0,27,-99.99,,,-99.99,,2013-04-29 08:21:00,
2013-04-29 01:31:00,65.0,30.0,-100.00,NE,47,3.0,5.0,27,-99.99,,,-99.99,,2013-04-29 08:31:00,
2013-04-29 01:41:00,64.0,29.0,-100.00,NE,43,3.0,5.0,27,-99.99,,,-99.99,,2013-04-29 08:41:00,
2013-04-29 01:51:00,66.0,29.0,-100.00,NNE,32,3.0,3.0,25,-99.99,,,-99.99,,2013-04-29 08:51:00,
2013-04-29 02:01:00,65.0,28.0,-100.00,ENE,70,2.0,3.0,25,-99.99,,,-99.99,,2013-04-29 09:01:00,
2013-04-29 02:11:00,64.0,28.0,-100.00,NE,48,3.0,6.0,26,-99.99,,,-99.99,,2013-04-29 09:11:00,
2013-04-29 02:21:00,65.0,27.0,-100.00,NE,36,3.0,5.0,24,-99.99,,,-99.99,,2013-04-29 09:21:00,
2013-04-29 02:32:00,64.0,28.0,-100.00,ENE,68,3.0,3.0,26,-99.99,,,-99.99,,2013-04-29 09:32:00,
2013-04-29 02:42:00,63.0,29.0,-100.00,ENE,70,2.0,3.0,27,-99.99,,,-99.99,,2013-04-29 09:42:00,
2013-04-29 02:52:00,63.0,29.0,-100.00,ENE,69,2.0,3.0,27,-99.99,,,-99.99,,2013-04-29 09:52:00,
2013-04-29 03:02:00,62.0,28.0,-100.00,ENE,65,3.0,3.0,27,-99.99,,,-99.99,,2013-04-29 10:02:00,
2013-04-29 03:12:00,61.0,28.0,-100.00,ENE,62,2.0,4.0,28,-99.99,,,-99.99,,2013-04-29 10:12:00,
2013-04-29 03:22:00,60.0,29.0,-100.00,ENE,76,2.0,3.0,31,-99.99,,,-99.99,,2013-04-29 10:22:00,
2013-04-29 03:32:00,60.0,29.0,-100.00,ENE,66,2.0,4.0,31,-99.99,,,-99.99,,2013-04-29 10:32:00,
2013-04-29 03:42:00,60.0,28.0,-100.00,ENE,71,3.0,3.0,30,-99.99,,,-99.99,,2013-04-29 10:42:00,
2013-04-29 03:52:00,60.0,28.0,-100.00,NE,55,2.0,4.0,30,-99.99,,,-99.99,,2013-04-29 10:52:00,
2013-04-29 04:02:00,60.0,29.0,-100.00,NE,53,3.0,6.0,31,-99.99,,,-99.99,,2013-04-29 11:02:00,
2013-04-29 04:12:00,61.0,29.0,-100.00,NE,56,4.0,5.0,30,-99.99,,,-99.99,,2013-04-29 11:12:00,
2013-04-29 04:21:00,61.0,29.0,-100.00,NE,55,3.0,3.0,30,-99.99,,,-99.99,,2013-04-29 11:21:00,
2013-04-29 04:31:00,61.0,29.0,-100.00,ENE,65,2.0,3.0,30,-99.99,,,-99.99,,2013-04-29 11:31:00,
2013-04-29 04:41:00,60.0,29.0,-100.00,East,88,2.0,4.0,31,-99.99,,,-99.99,,2013-04-29 11:41:00,
2013-04-29 04:52:00,60.0,29.0,-100.00,ENE,78,3.0,4.0,31,-99.99,,,-99.99,,2013-04-29 11:52:00,
2013-04-29 05:01:00,60.0,29.0,-100.00,ENE,75,2.0,3.0,31,-99.99,,,-99.99,,2013-04-29 12:01:00,
2013-04-29 05:11:00,59.0,28.0,-100.00,ENE,75,2.0,4.0,31,-99.99,,,-99.99,,2013-04-29 12:11:00,
2013-04-29 05:21:00,58.0,28.0,-100.00,ENE,75,3.0,6.0,31,-99.99,,,-99.99,,2013-04-29 12:21:00,
2013-04-29 05:31:00,59.0,28.0,-100.00,ENE,67,4.0,7.0,30,-99.99,,,-99.99,,2013-04-29 12:31:00,
2013-04-29 05:41:00,59.0,28.0,-100.00,ENE,67,4.0,7.0,30,-99.99,,,-99.99,,2013-04-29 12:41:00,
2013-04-29 05:51:00,58.0,28.0,-100.00,ENE,67,5.0,7.0,31,-99.99,,,-99.99,,2013-04-29 12:51:00,
2013-04-29 06:01:00,59.0,28.0,-100.00,ENE,65,5.0,7.0,31,-99.99,,,-99.99,,2013-04-29 13:01:00,
2013-04-29 06:11:00,59.0,28.0,-100.00,ENE,66,5.0,7.0,31,-99.99,,,-99.99,,2013-04-29 13:11:00,
2013-04-29 06:21:00,59.0,28.0,-100.00,ENE,66,5.0,8.0,30,-99.99,,,-99.99,,2013-04-29 13:21:00,
2013-04-29 06:31:00,60.0,27.0,-100.00,ENE,65,5.0,7.0,28,-99.99,,,-99.99,,2013-04-29 13:31:00,
2013-04-29 06:42:00,60.0,28.0,-100.00,ENE,65,5.0,7.0,29,-99.99,,,-99.99,,2013-04-29 13:42:00,
2013-04-29 06:52:00,59.0,27.0,-100.00,ENE,65,5.0,7.0,29,-99.99,,,-99.99,,2013-04-29 13:52:00,
2013-04-29 07:01:00,59.0,27.0,-100.00,ENE,65,5.0,7.0,29,-99.99,,,-99.99,,2013-04-29 14:01:00,
2013-04-29 07:11:00,60.0,28.0,-100.00,ENE,65,4.0,5.0,29,-99.99,,,-99.99,,2013-04-29 14:11:00,
2013-04-29 07:21:00,61.0,29.0,-100.00,ENE,71,3.0,5.0,29,-99.99,,,-99.99,,2013-04-29 14:21:00,
2013-04-29 07:32:00,62.0,29.0,-100.00,ENE,66,3.0,4.0,29,-99.99,,,-99.99,,2013-04-29 14:32:00,
2013-04-29 07:42:00,63.0,29.0,-100.00,ENE,65,3.0,6.0,28,-99.99,,,-99.99,,2013-04-29 14:42:00,
2013-04-29 07:51:00,65.0,31.0,-100.00,ENE,68,4.0,5.0,28,-99.99,,,-99.99,,2013-04-29 14:51:00,
2013-04-29 08:01:00,65.0,31.0,-100.00,ENE,68,4.0,5.0,28,-99.99,,,-99.99,,2013-04-29 15:01:00,
2013-04-29 08:12:00,67.0,32.0,-100.00,East,85,3.0,5.0,27,-99.99,,,-99.99,,2013-04-29 15:12:00,
2013-04-29 08:21:00,69.0,34.0,-100.00,East,96,3.0,5.0,27,-99.99,,,-99.99,,2013-04-29 15:21:00,
2013-04-29 08:33:00,69.0,33.0,-100.00,East,95,3.0,6.0,26,-99.99,,,-99.99,,2013-04-29 15:33:00,
2013-04-29 08:42:00,70.0,34.0,-100.00,ESE,118,3.0,7.0,26,-99.99,,,-99.99,,2013-04-29 15:42:00,
2013-04-29 08:52:00,70.0,34.0,-100.00,ESE,110,4.0,6.0,26,-99.99,,,-99.99,,2013-04-29 15:52:00,
2013-04-29 09:02:00,71.0,33.0,-100.00,ESE,109,4.0,6.0,25,-99.99,,,-99.99,,2013-04-29 16:02:00,
2013-04-29 09:12:00,71.0,32.0,-100.00,ESE,115,3.0,6.0,24,-99.99,,,-99.99,,2013-04-29 16:12:00,
2013-04-29 09:23:00,72.0,33.0,-100.00,SE,134,3.0,5.0,24,-99.99,,,-99.99,,2013-04-29 16:23:00,
2013-04-29 09:32:00,73.0,33.0,-100.00,SE,138,3.0,4.0,23,-99.99,,,-99.99,,2013-04-29 16:32:00,
2013-04-29 09:42:00,74.0,33.0,-100.00,SSE,154,2.0,4.0,22,-99.99,,,-99.99,,2013-04-29 16:42:00,
2013-04-29 09:52:00,75.0,34.0,-100.00,South,190,2.0,5.0,22,-99.99,,,-99.99,,2013-04-29 16:52:00,
2013-04-29 10:02:00,75.0,34.0,-100.00,South,190,2.0,5.0,22,-99.99,,,-99.99,,2013-04-29 17:02:00,
2013-04-29 10:11:00,75.0,32.0,-100.00,South,176,2.0,4.0,21,-99.99,,,-99.99,,2013-04-29 17:11:00,
2013-04-29 10:22:00,76.0,33.0,-100.00,South,185,2.0,7.0,21,-99.99,,,-99.99,,2013-04-29 17:22:00,
2013-04-29 10:32:00,75.0,32.0,-100.00,SW,229,3.0,8.0,21,-99.99,,,-99.99,,2013-04-29 17:32:00,
2013-04-29 10:42:00,76.0,38.0,-100.00,WSW,256,4.0,10.0,25,-99.99,,,-99.99,,2013-04-29 17:42:00,
2013-04-29 10:52:00,75.0,37.0,-100.00,WSW,249,5.0,9.0,25,-99.99,,,-99.99,,2013-04-29 17:52:00,
2013-04-29 11:01:00,75.0,37.0,-100.00,WSW,249,5.0,9.0,25,-99.99,,,-99.99,,2013-04-29 18:01:00,
2013-04-29 11:12:00,75.0,37.0,-100.00,West,259,5.0,9.0,25,-99.99,,,-99.99,,2013-04-29 18:12:00,
2013-04-29 11:22:00,75.0,40.0,-100.00,WSW,255,6.0,10.0,28,-99.99,,,-99.99,,2013-04-29 18:22:00,
2013-04-29 11:31:00,75.0,38.0,-100.00,WSW,253,6.0,10.0,26,-99.99,,,-99.99,,2013-04-29 18:31:00,
2013-04-29 11:41:00,75.0,37.0,-100.00,WSW,255,6.0,10.0,25,-99.99,,,-99.99,,2013-04-29 18:41:00,
2013-04-29 11:51:00,75.0,37.0,-100.00,WSW,252,6.0,10.0,25,-99.99,,,-99.99,,2013-04-29 18:51:00,
2013-04-29 12:01:00,75.0,37.0,-100.00,WSW,252,6.0,10.0,25,-99.99,,,-99.99,,2013-04-29 19:01:00,
2013-04-29 12:11:00,75.0,35.0,-100.00,WSW,255,7.0,11.0,23,-99.99,,,-99.99,,2013-04-29 19:11:00,
2013-04-29 12:21:00,76.0,38.0,-100.00,WSW,255,7.0,13.0,25,-99.99,,,-99.99,,2013-04-29 19:21:00,
2013-04-29 12:31:00,76.0,38.0,-100.00,WSW,255,7.0,13.0,25,-99.99,,,-99.99,,2013-04-29 19:31:00,
2013-04-29 12:41:00,76.0,38.0,-100.00,WSW,255,7.0,13.0,25,-99.99,,,-99.99,,2013-04-29 19:41:00,
2013-04-29 12:52:00,77.0,35.0,-100.00,WSW,248,7.0,11.0,22,-99.99,,,-99.99,,2013-04-29 19:52:00,
2013-04-29 13:02:00,76.0,36.0,-100.00,WSW,252,7.0,12.0,23,-99.99,,,-99.99,,2013-04-29 20:02:00,
2013-04-29 13:11:00,77.0,36.0,-100.00,WSW,253,7.0,12.0,23,-99.99,,,-99.99,,2013-04-29 20:11:00,
2013-04-29 13:21:00,77.0,37.0,-100.00,WSW,253,7.0,13.0,24,-99.99,,,-99.99,,2013-04-29 20:21:00,
2013-04-29 13:32:00,77.0,36.0,-100.00,WSW,249,7.0,12.0,23,-99.99,,,-99.99,,2013-04-29 20:32:00,
2013-04-29 13:42:00,77.0,35.0,-100.00,WSW,250,7.0,13.0,22,-99.99,,,-99.99,,2013-04-29 20:42:00,
2013-04-29 13:51:00,77.0,37.0,-100.00,WSW,255,8.0,12.0,24,-99.99,,,-99.99,,2013-04-29 20:51:00,
2013-04-29 14:01:00,77.0,39.0,-100.00,West,260,7.0,12.0,26,-99.99,,,-99.99,,2013-04-29 21:01:00,
2013-04-29 14:11:00,78.0,39.0,-100.00,WSW,248,7.0,13.0,25,-99.99,,,-99.99,,2013-04-29 21:11:00,
2013-04-29 14:21:00,78.0,39.0,-100.00,WSW,251,8.0,12.0,25,-99.99,,,-99.99,,2013-04-29 21:21:00,
2013-04-29 14:32:00,78.0,39.0,-100.00,WSW,257,8.0,16.0,25,-99.99,,,-99.99,,2013-04-29 21:32:00,
2013-04-29 14:42:00,78.0,39.0,-100.00,WSW,257,8.0,16.0,25,-99.99,,,-99.99,,2013-04-29 21:42:00,
2013-04-29 14:53:00,78.0,41.0,-100.00,West,260,7.0,14.0,27,-99.99,,,-99.99,,2013-04-29 21:53:00,
2013-04-29 15:02:00,78.0,41.0,-100.00,WSW,256,9.0,15.0,27,-99.99,,,-99.99,,2013-04-29 22:02:00,
2013-04-29 15:13:00,78.0,40.0,-100.00,WSW,253,8.0,15.0,26,-99.99,,,-99.99,,2013-04-29 22:13:00,
2013-04-29 15:23:00,77.0,40.0,-100.00,WSW,251,9.0,13.0,27,-99.99,,,-99.99,,2013-04-29 22:23:00,
2013-04-29 15:32:00,78.0,39.0,-100.00,WSW,257,8.0,14.0,25,-99.99,,,-99.99,,2013-04-29 22:32:00,
2013-04-29 15:42:00,77.0,39.0,-100.00,West,262,8.0,13.0,26,-99.99,,,-99.99,,2013-04-29 22:42:00,
2013-04-29 15:52:00,78.0,39.0,-100.00,West,263,8.0,11.0,25,-99.99,,,-99.99,,2013-04-29 22:52:00,
2013-04-29 16:02:00,78.0,38.0,-100.00,WSW,251,6.0,13.0,24,-99.99,,,-99.99,,2013-04-29 23:02:00,
2013-04-29 16:11:00,78.0,38.0,-100.00,WSW,251,7.0,12.0,24,-99.99,,,-99.99,,2013-04-29 23:11:00,
2013-04-29 16:22:00,78.0,40.0,-100.00,WSW,256,7.0,14.0,26,-99.99,,,-99.99,,2013-04-29 23:22:00,
2013-04-29 16:31:00,77.0,41.0,-100.00,West,261,8.0,14.0,28,-99.99,,,-99.99,,2013-04-29 23:31:00,
2013-04-29 16:42:00,77.0,42.0,-100.00,West,259,7.0,12.0,29,-99.99,,,-99.99,,2013-04-29 23:42:00,
2013-04-29 16:52:00,76.0,41.0,-100.00,WSW,255,7.0,12.0,29,-99.99,,,-99.99,,2013-04-29 23:52:00,
2013-04-29 17:01:00,76.0,42.0,-100.00,West,259,7.0,11.0,30,-99.99,,,-99.99,,2013-04-30 00:01:00,
2013-04-29 17:11:00,76.0,44.0,-100.00,WSW,253,7.0,11.0,32,-99.99,,,-99.99,,2013-04-30 00:11:00,
2013-04-29 17:21:00,75.0,45.0,-100.00,WSW,256,7.0,13.0,35,-99.99,,,-99.99,,2013-04-30 00:21:00,
2013-04-29 17:31:00,74.0,46.0,-100.00,WSW,250,7.0,11.0,37,-99.99,,,-99.99,,2013-04-30 00:31:00,
2013-04-29 17:40:00,73.0,48.0,-100.00,WSW,253,6.0,9.0,41,-99.99,,,-99.99,,2013-04-30 00:40:00,
2013-04-29 17:41:00,74.0,46.0,-100.00,WSW,250,7.0,11.0,37,-99.99,,,-99.99,,2013-04-30 00:41:00,
2013-04-29 17:51:00,74.0,46.0,-100.00,WSW,250,7.0,11.0,37,-99.99,,,-99.99,,2013-04-30 00:51:00,
2013-04-29 18:01:00,73.0,48.0,-100.00,WSW,246,6.0,9.0,41,-99.99,,,-99.99,,2013-04-30 01:01:00,
2013-04-29 18:11:00,73.0,48.0,-100.00,WSW,253,6.0,9.0,41,-99.99,,,-99.99,,2013-04-30 01:11:00,
2013-04-29 18:21:00,73.0,48.0,-100.00,WSW,253,6.0,9.0,41,-99.99,,,-99.99,,2013-04-30 01:21:00,
2013-04-29 18:31:00,73.0,48.0,-100.00,WSW,253,6.0,9.0,41,-99.99,,,-99.99,,2013-04-30 01:31:00,
2013-04-29 18:52:00,71.0,49.0,-100.00,WSW,246,5.0,7.0,45,-99.99,,,-99.99,,2013-04-30 01:52:00,
2013-04-29 19:01:00,71.0,49.0,-100.00,WSW,246,5.0,7.0,45,-99.99,,,-99.99,,2013-04-30 02:01:00,
2013-04-29 19:11:00,71.0,49.0,-100.00,WSW,246,5.0,7.0,45,-99.99,,,-99.99,,2013-04-30 02:11:00,
2013-04-29 19:21:00,70.0,50.0,-100.00,West,264,3.0,4.0,49,-99.99,,,-99.99,,2013-04-30 02:21:00,
2013-04-29 19:31:00,69.0,50.0,-100.00,WSW,250,3.0,3.0,50,-99.99,,,-99.99,,2013-04-30 02:31:00,
2013-04-29 19:41:00,69.0,50.0,-100.00,WSW,250,3.0,3.0,50,-99.99,,,-99.99,,2013-04-30 02:41:00,
2013-04-29 19:50:00,63.0,50.0,-100.00,NE,53,0.0,1.0,62,-99.99,,,-99.99,,2013-04-30 02:50:00,
2013-04-29 19:51:00,69.0,50.0,-100.00,WSW,250,3.0,3.0,50,-99.99,,,-99.99,,2013-04-30 02:51:00,
2013-04-29 20:01:00,65.0,50.0,-100.00,SW,220,2.0,3.0,58,-99.99,,,-99.99,,2013-04-30 03:01:00,
2013-04-29 20:11:00,65.0,50.0,-100.00,SW,220,2.0,3.0,58,-99.99,,,-99.99,,2013-04-30 03:11:00,
2013-04-29 20:42:00,63.0,50.0,-100.00,NE,53,0.0,1.0,62,-99.99,,,-99.99,,2013-04-30 03:42:00,
2013-04-29 23:01:00,57.0,47.0,-100.00,ENE,59,2.0,3.0,70,-99.99,,,-99.99,,2013-04-30 06:01:00,
2013-04-29 23:11:00,57.0,47.0,-100.00,ENE,59,2.0,3.0,70,-99.99,,,-99.99,,2013-04-30 06:11:00,
2013-04-29 23:21:00,58.0,43.0,-100.00,SSW,196,1.0,3.0,58,-99.99,,,-99.99,,2013-04-30 06:21:00,
2013-04-29 23:31:00,58.0,43.0,-100.00,SSW,196,1.0,3.0,58,-99.99,,,-99.99,,2013-04-30 06:31:00,
2013-04-29 23:41:00,58.0,43.0,-100.00,SSW,196,1.0,3.0,58,-99.99,,,-99.99,,2013-04-30 06:41:00,
2013-04-29 23:52:00,56.0,39.0,-100.00,ENE,63,2.0,3.0,52,-99.99,,,-99.99,,2013-04-30 06:52:00,